^^
Marion, Virginia Banner
 

U.S. Satellite Loop
U.S. National Satellite Loop
View Satellite

Live Doppler Radar
Blacksburg, VA Nexrad Doppler Radar
View Radar

NW Atlantic Satellite
U.S. National Satellite Loop
View Satellite

US WX Conditions
US Weather Conditions
View Wx Conditions


USA Weather Finder


 

Adwolf, VA. Station Historical Data
[ Providing Data Since 6/07/2007 ]
Station Historical Data
Daily Summary for April 16, 2018 Units:  Metric    English   Both
« Previous Day
Next Day »
Daily Weekly Monthly Yearly Custom
  High: Low: Average:
Temperature: -17.8 °C -2.1 °C 2.3 °C
Dew Point: -17.8 °C -5 °C 0.1 °C
Humidity: Humidity% 69% 85%
Wind Speed: 0km/h 4.8km/h 10.9km/h
Wind Gust: 0km/h - -
Wind- - WSW
Pressure: 0 hPa 1001.6 hPa -
Precipitation: 1.27 mm    
Historical Graphs
 
 
Tabular Data for April 16, 2018
Time Temperature Dew Point Pressure Wind Wind Speed Wind Gust Humidity Rainfall Rate (Hourly) solar Conditions
-17.8 °C -17.8 °C 0 hPa Calm     Humidity% 0 mm SoftwareType W/m2 Conditions
00:00 9.5 °C 8.4 °C 1001.6 hPa WSW 8 km/h 19.3 km/h 93% 0 mm WeatherDisplay:10.37 W/m2 +DZ
00:10 9.3 °C 8.2 °C 1001.6 hPa WSW 8 km/h 20.9 km/h 93% 0 mm WeatherDisplay:10.37 W/m2 -DZ
00:20 8.4 °C 7.2 °C 1001.6 hPa SW 9.7 km/h 20.9 km/h 92% 0 mm WeatherDisplay:10.37 W/m2 -DZ
00:30 7.9 °C 6.7 °C 1001.9 hPa WSW 8 km/h 19.3 km/h 92% 0 mm WeatherDisplay:10.37 W/m2 OVC
00:40 7.8 °C 6.6 °C 1002.3 hPa SW 8 km/h 16.1 km/h 92% 0 mm WeatherDisplay:10.37 W/m2 OVC
00:50 7.5 °C 6.3 °C 1002.6 hPa SW 8 km/h 14.5 km/h 92% 0 mm WeatherDisplay:10.37 W/m2 OVC
01:00 7.2 °C 6.1 °C 1002.9 hPa SW 9.7 km/h 14.5 km/h 92% 0 mm WeatherDisplay:10.37 W/m2 RA
01:10 7.1 °C 5.8 °C 1003.3 hPa WSW 8 km/h 16.1 km/h 92% 0 mm WeatherDisplay:10.37 W/m2 RA
01:20 6.9 °C 5.8 °C 1003.3 hPa WSW 9.7 km/h 16.1 km/h 93% 0 mm WeatherDisplay:10.37 W/m2 OVC
01:30 6.7 °C 5.7 °C 1003.3 hPa WSW 8 km/h 19.3 km/h 93% 0 mm WeatherDisplay:10.37 W/m2 RA
01:40 6.6 °C 5.5 °C 1003.3 hPa West 9.7 km/h 16.1 km/h 93% 0 mm WeatherDisplay:10.37 W/m2 OVC
01:50 6.3 °C 5.1 °C 1003.3 hPa WSW 8 km/h 16.1 km/h 92% 0 mm WeatherDisplay:10.37 W/m2 OVC
02:00 6.2 °C 4.9 °C 1003.6 hPa WSW 4.8 km/h 16.1 km/h 92% 0 mm WeatherDisplay:10.37 W/m2 OVC
02:10 5.8 °C 4.7 °C 1003.9 hPa WSW 8 km/h 17.7 km/h 92% 0 mm WeatherDisplay:10.37 W/m2 OVC
02:20 5.3 °C 4 °C 1003.9 hPa WSW 9.7 km/h 25.7 km/h 91% 0 mm WeatherDisplay:10.37 W/m2 OVC
02:30 5.1 °C 3.8 °C 1003.9 hPa WSW 9.7 km/h 19.3 km/h 91% 0 mm WeatherDisplay:10.37 W/m2 OVC
02:40 4.9 °C 3.4 °C 1004.3 hPa WSW 4.8 km/h 16.1 km/h 90% 0 mm WeatherDisplay:10.37 W/m2 OVC
02:50 4.8 °C 3.5 °C 1004.3 hPa WSW 4.8 km/h 14.5 km/h 91% 0 mm WeatherDisplay:10.37 W/m2 OVC
03:00 4.7 °C 3.3 °C 1004.3 hPa WSW 8 km/h 16.1 km/h 91% 0 mm WeatherDisplay:10.37 W/m2 OVC
03:10 4.6 °C 3.2 °C 1004.6 hPa WSW 8 km/h 22.5 km/h 91% 0 mm WeatherDisplay:10.37 W/m2 OVC
03:20 4.4 °C 2.9 °C 1004.6 hPa WSW 9.7 km/h 19.3 km/h 90% 0 mm WeatherDisplay:10.37 W/m2 OVC
03:30 4.3 °C 2.7 °C 1004.6 hPa WSW 9.7 km/h 19.3 km/h 89% 0 mm WeatherDisplay:10.37 W/m2 OVC
03:40 4.1 °C 2.7 °C 1004.6 hPa WSW 8 km/h 19.3 km/h 90% 0 mm WeatherDisplay:10.37 W/m2 OVC
03:50 3.9 °C 2.3 °C 1004.6 hPa WSW 11.3 km/h 20.9 km/h 89% 0 mm WeatherDisplay:10.37 W/m2 -DZ
04:00 3.8 °C 2.3 °C 1004.6 hPa WSW 9.7 km/h 16.1 km/h 90% 0 mm WeatherDisplay:10.37 W/m2 -DZ
04:10 3.8 °C 2.3 °C 1004.3 hPa WSW 4.8 km/h 12.9 km/h 90% 0 mm WeatherDisplay:10.37 W/m2 OVC
04:20 3.8 °C 2.3 °C 1004.3 hPa WSW 9.7 km/h 20.9 km/h 90% 0 mm WeatherDisplay:10.37 W/m2 OVC
04:30 3.8 °C 2.2 °C 1004.6 hPa WSW 4.8 km/h 20.9 km/h 89% 0 mm WeatherDisplay:10.37 W/m2 OVC
04:40 3.8 °C 2.2 °C 1004.6 hPa WSW 9.7 km/h 16.1 km/h 89% 0 mm WeatherDisplay:10.37 W/m2 OVC
04:50 3.8 °C 2.2 °C 1004.6 hPa WSW 9.7 km/h 16.1 km/h 89% 0 mm WeatherDisplay:10.37 W/m2 OVC
05:00 3.8 °C 2.1 °C 1004.6 hPa WSW 9.7 km/h 20.9 km/h 89% 0 mm WeatherDisplay:10.37 W/m2 OVC
05:10 3.7 °C 2.1 °C 1004.6 hPa WSW 8 km/h 19.3 km/h 89% 0 mm WeatherDisplay:10.37 W/m2 OVC
05:20 3.7 °C 2 °C 1004.6 hPa WSW 9.7 km/h 19.3 km/h 89% 0 mm WeatherDisplay:10.37 W/m2 OVC
05:30 3.7 °C 2 °C 1004.6 hPa WSW 4.8 km/h 14.5 km/h 89% 0 mm WeatherDisplay:10.37 W/m2 OVC
05:40 3.6 °C 2.1 °C 1004.6 hPa WSW 8 km/h 19.3 km/h 90% 0 mm WeatherDisplay:10.37 W/m2 OVC
05:50 3.5 °C 2 °C 1005 hPa WSW 9.7 km/h 16.1 km/h 90% 0 mm WeatherDisplay:10.37 W/m2 OVC
06:00 3.4 °C 1.9 °C 1005 hPa WSW 8 km/h 22.5 km/h 90% 0 mm WeatherDisplay:10.37 W/m2 OVC
06:10 3.3 °C 1.8 °C 1005 hPa WSW 9.7 km/h 16.1 km/h 90% 0 mm WeatherDisplay:10.37 W/m2 OVC
06:20 3.2 °C 1.7 °C 1005 hPa SW 12.9 km/h 20.9 km/h 90% 0 mm WeatherDisplay:10.37 W/m2 OVC
06:30 3.2 °C 1.9 °C 1005.3 hPa SW 9.7 km/h 20.9 km/h 91% 0 mm WeatherDisplay:10.37 W/m2 -DZ
06:40 3.2 °C 1.8 °C 1005.3 hPa WSW 8 km/h 19.3 km/h 91% 0 mm WeatherDisplay:10.37 W/m2 -DZ
06:50 3.2 °C 1.8 °C 1005.3 hPa WSW 4.8 km/h 19.3 km/h 91% 0 mm WeatherDisplay:10.37 W/m2 OVC
07:00 3.2 °C 1.8 °C 1005.6 hPa SW 8 km/h 24.1 km/h 91% 0 mm WeatherDisplay:10.37 W/m2 OVC
07:10 3 °C 1.7 °C 1005.6 hPa WSW 8 km/h 14.5 km/h 91% 0 mm WeatherDisplay:10.37 W/m2 -RA
07:20 2.8 °C 1.3 °C 1005.6 hPa WSW 11.3 km/h 19.3 km/h 90% 0 mm WeatherDisplay:10.37 W/m2 -RA
07:30 2.8 °C 1 °C 1006.3 hPa WSW 11.3 km/h 25.7 km/h 88% 0 mm WeatherDisplay:10.37 W/m2 OVC
07:40 2.9 °C 0.9 °C 1006.3 hPa WSW 11.3 km/h 20.9 km/h 87% 0 mm WeatherDisplay:10.37 W/m2 OVC
07:50 2.9 °C 0.8 °C 1006.7 hPa SW 11.3 km/h 20.9 km/h 86% 0 mm WeatherDisplay:10.37 W/m2 OVC
08:00 2.9 °C 0.7 °C 1006.7 hPa WSW 9.7 km/h 20.9 km/h 85% 0 mm WeatherDisplay:10.37 W/m2 OVC
08:10 2.9 °C 0.8 °C 1006.7 hPa WSW 11.3 km/h 22.5 km/h 86% 0 mm WeatherDisplay:10.37 W/m2 OVC
08:20 2.9 °C 1 °C 1006.7 hPa WSW 11.3 km/h 19.3 km/h 87% 0 mm WeatherDisplay:10.37 W/m2 OVC
08:30 3.1 °C 0.8 °C 1007 hPa WSW 9.7 km/h 24.1 km/h 85% 0 mm WeatherDisplay:10.37 W/m2 -RA
08:40 3.2 °C 1.1 °C 1007 hPa SW 11.3 km/h 19.3 km/h 86% 0 mm WeatherDisplay:10.37 W/m2 -RA
08:50 3.1 °C 1.2 °C 1007 hPa WSW 11.3 km/h 24.1 km/h 87% 0 mm WeatherDisplay:10.37 W/m2 OVC
09:00 3.1 °C 1.1 °C 1007.3 hPa WSW 12.9 km/h 24.1 km/h 87% 0 mm WeatherDisplay:10.37 W/m2 OVC
09:10 3.1 °C 0.8 °C 1007.3 hPa WSW 9.7 km/h 20.9 km/h 85% 0 mm WeatherDisplay:10.37 W/m2 OVC
09:20 3.3 °C 0.8 °C 1007.3 hPa WSW 11.3 km/h 19.3 km/h 84% 0 mm WeatherDisplay:10.37 W/m2 OVC
09:30 3.3 °C 1 °C 1007.3 hPa WSW 11.3 km/h 19.3 km/h 85% 0 mm WeatherDisplay:10.37 W/m2 OVC
09:40 3 °C 0.9 °C 1007.7 hPa WSW 14.5 km/h 25.7 km/h 86% 0 mm WeatherDisplay:10.37 W/m2 OVC
09:50 2 °C 0.6 °C 1007.7 hPa WSW 11.3 km/h 22.5 km/h 90% 0 mm WeatherDisplay:10.37 W/m2 RA
10:00 2.3 °C 1 °C 1008 hPa WSW 8 km/h 24.1 km/h 91% 0 mm WeatherDisplay:10.37 W/m2 OVC
10:10 2.8 °C 1.3 °C 1008 hPa WSW 12.9 km/h 20.9 km/h 90% 0 mm WeatherDisplay:10.37 W/m2 -SN
10:20 2.9 °C 1.3 °C 1008 hPa West 8 km/h 24.1 km/h 89% 0 mm WeatherDisplay:10.37 W/m2 -SN
10:30 3.6 °C 1.9 °C 1008 hPa WSW 9.7 km/h 20.9 km/h 89% 0 mm WeatherDisplay:10.37 W/m2 OVC
10:40 3.6 °C 1.4 °C 1008.4 hPa WSW 9.7 km/h 20.9 km/h 86% 0 mm WeatherDisplay:10.37 W/m2 OVC
10:50 3.5 °C 1.7 °C 1008.4 hPa WSW 8 km/h 16.1 km/h 88% 0 mm WeatherDisplay:10.37 W/m2 OVC
11:00 3.6 °C 1.6 °C 1008.4 hPa SW 9.7 km/h 20.9 km/h 87% 0 mm WeatherDisplay:10.37 W/m2 OVC
11:10 3.3 °C 1.5 °C 1008.4 hPa SW 11.3 km/h 20.9 km/h 88% 0 mm WeatherDisplay:10.37 W/m2 OVC
11:20 3.4 °C 1.1 °C 1008.4 hPa WSW 11.3 km/h 27.4 km/h 85% 0 mm WeatherDisplay:10.37 W/m2 OVC
11:30 3.6 °C 1 °C 1008.4 hPa WSW 12.9 km/h 25.7 km/h 83% 0 mm WeatherDisplay:10.37 W/m2 OVC
11:40 4.3 °C 1.5 °C 1008.4 hPa WSW 12.9 km/h 22.5 km/h 82% 0 mm WeatherDisplay:10.37 W/m2 RA
11:50 3.8 °C 0.6 °C 1008.7 hPa WSW 20.9 km/h 40.2 km/h 79% 0 mm WeatherDisplay:10.37 W/m2 OVC
12:00 1.9 °C 0.2 °C 1008.7 hPa WSW 8 km/h 40.2 km/h 88% 0 mm WeatherDisplay:10.37 W/m2 OVC
12:10 2.7 °C 1.2 °C 1008.4 hPa WSW 12.9 km/h 20.9 km/h 90% 0 mm WeatherDisplay:10.37 W/m2 OVC
12:20 3.6 °C 1.3 °C 1008.4 hPa WSW 12.9 km/h 25.7 km/h 85% 0 mm WeatherDisplay:10.37 W/m2 OVC
12:30 3.2 °C 1.6 °C 1008 hPa WSW 9.7 km/h 24.1 km/h 89% 0 mm WeatherDisplay:10.37 W/m2 OVC
12:40 3.9 °C 1.9 °C 1008 hPa SW 11.3 km/h 22.5 km/h 87% 0 mm WeatherDisplay:10.37 W/m2 OVC
12:50 4.3 °C 1.7 °C 1007.7 hPa WSW 8 km/h 22.5 km/h 83% 0 mm WeatherDisplay:10.37 W/m2 OVC
13:00 4.2 °C 1 °C 1007.7 hPa WSW 14.5 km/h 22.5 km/h 80% 0 mm WeatherDisplay:10.37 W/m2 OVC
13:10 4 °C 0.7 °C 1007.7 hPa WSW 12.9 km/h 24.1 km/h 79% 0 mm WeatherDisplay:10.37 W/m2 OVC
13:20 3.6 °C 1 °C 1008.4 hPa West 12.9 km/h 24.1 km/h 83% 0 mm WeatherDisplay:10.37 W/m2 OVC
13:30 3 °C 0.9 °C 1008.4 hPa WSW 14.5 km/h 24.1 km/h 86% 0 mm WeatherDisplay:10.37 W/m2 OVC
13:40 2.7 °C 0.6 °C 1008.4 hPa WSW 16.1 km/h 25.7 km/h 86% 0 mm WeatherDisplay:10.37 W/m2 OVC
13:50 2.8 °C 0.2 °C 1008.4 hPa WSW 12.9 km/h 25.7 km/h 83% 0 mm WeatherDisplay:10.37 W/m2 OVC
14:00 3.1 °C 0.7 °C 1008.4 hPa WSW 11.3 km/h 29 km/h 84% 0 mm WeatherDisplay:10.37 W/m2 OVC
14:10 3.6 °C 0.4 °C 1008.4 hPa WSW 19.3 km/h 29 km/h 80% 0 mm WeatherDisplay:10.37 W/m2 OVC
14:20 2.4 °C 0 °C 1008.7 hPa WSW 11.3 km/h 41.8 km/h 84% 0 mm WeatherDisplay:10.37 W/m2 OVC
14:30 3 °C -0.4 °C 1008.7 hPa WSW 16.1 km/h 33.8 km/h 78% 0 mm WeatherDisplay:10.37 W/m2 -SN
14:40 3.3 °C -0.9 °C 1008.7 hPa WSW 16.1 km/h 37 km/h 74% 0 mm WeatherDisplay:10.37 W/m2 -SN
14:50 3.7 °C -0.7 °C 1008.7 hPa WSW 11.3 km/h 25.7 km/h 73% 0 mm WeatherDisplay:10.37 W/m2 -SN
15:00 3.9 °C -0.7 °C 1008.7 hPa WSW 12.9 km/h 27.4 km/h 72% 0 mm WeatherDisplay:10.37 W/m2 -SN
15:10 3.4 °C -1.7 °C 1008.7 hPa West 16.1 km/h 38.6 km/h 69% 0 mm WeatherDisplay:10.37 W/m2 -RA
15:20 3.2 °C -1.4 °C 1009 hPa West 11.3 km/h 27.4 km/h 72% 0 mm WeatherDisplay:10.37 W/m2 -RA
15:30 3.2 °C -1.6 °C 1009 hPa WSW 12.9 km/h 27.4 km/h 71% 0 mm WeatherDisplay:10.37 W/m2 OVC
15:40 3.2 °C -1.6 °C 1009 hPa West 12.9 km/h 20.9 km/h 71% 0 mm WeatherDisplay:10.37 W/m2 OVC
15:50 3.2 °C -1.8 °C 1009 hPa West 12.9 km/h 20.9 km/h 70% 0 mm WeatherDisplay:10.37 W/m2 OVC
16:00 3.3 °C -1.9 °C 1009 hPa WSW 9.7 km/h 20.9 km/h 69% 0 mm WeatherDisplay:10.37 W/m2 OVC
16:10 3.1 °C -1.9 °C 1009.4 hPa West 16.1 km/h 25.7 km/h 70% 0 mm WeatherDisplay:10.37 W/m2 OVC
16:20 2.7 °C -1.7 °C 1009.4 hPa WSW 12.9 km/h 29 km/h 73% 0 mm WeatherDisplay:10.37 W/m2 OVC
16:30 2.4 °C -1.7 °C 1009.7 hPa WSW 14.5 km/h 32.2 km/h 74% 0 mm WeatherDisplay:10.37 W/m2 OVC
16:40 2.3 °C -1.9 °C 1009.7 hPa WSW 11.3 km/h 27.4 km/h 74% 0 mm WeatherDisplay:10.37 W/m2 OVC
16:50 2.1 °C -2.7 °C 1010 hPa WSW 14.5 km/h 29 km/h 71% 0 mm WeatherDisplay:10.37 W/m2 OVC
17:00 1.9 °C -3 °C 1010 hPa WSW 19.3 km/h 35.4 km/h 70% 0 mm WeatherDisplay:10.37 W/m2 OVC
17:10 1.8 °C -2.7 °C 1010.4 hPa WSW 16.1 km/h 27.4 km/h 72% 0 mm WeatherDisplay:10.37 W/m2 OVC
17:20 1.7 °C -2.8 °C 1010.7 hPa WSW 14.5 km/h 32.2 km/h 72% 0 mm WeatherDisplay:10.37 W/m2 OVC
17:30 1.4 °C -3.2 °C 1011.1 hPa WSW 16.1 km/h 29 km/h 71% 0 mm WeatherDisplay:10.37 W/m2 OVC
17:40 1.2 °C -2.4 °C 1011.4 hPa WSW 12.9 km/h 27.4 km/h 77% 0 mm WeatherDisplay:10.37 W/m2 OVC
17:50 0.2 °C -1.9 °C 1011.7 hPa West 14.5 km/h 24.1 km/h 86% 0 mm WeatherDisplay:10.37 W/m2 -SN
18:00 -0.5 °C -2.2 °C 1011.7 hPa WSW 11.3 km/h 22.5 km/h 88% 0 mm WeatherDisplay:10.37 W/m2 -SN
18:10 -0.5 °C -1.9 °C 1012.1 hPa WSW 8 km/h 20.9 km/h 90% 0 mm WeatherDisplay:10.37 W/m2 -SN
18:20 -0.7 °C -2 °C 1012.1 hPa WSW 9.7 km/h 22.5 km/h 91% 0 mm WeatherDisplay:10.37 W/m2 -SN
18:30 -0.8 °C -1.9 °C 1012.4 hPa WSW 8 km/h 19.3 km/h 92% 0 mm WeatherDisplay:10.37 W/m2 -SN
18:40 -0.7 °C -1.9 °C 1012.4 hPa WSW 12.9 km/h 22.5 km/h 91% 0 mm WeatherDisplay:10.37 W/m2 -SN
18:50 -0.7 °C -2.1 °C 1012.8 hPa WSW 12.9 km/h 25.7 km/h 90% 0 mm WeatherDisplay:10.37 W/m2 -SN
19:00 -0.7 °C -2.3 °C 1012.8 hPa WSW 11.3 km/h 25.7 km/h 89% 0 mm WeatherDisplay:10.37 W/m2 -SN
19:10 -0.6 °C -2.4 °C 1012.8 hPa WSW 11.3 km/h 20.9 km/h 87% 0 mm WeatherDisplay:10.37 W/m2 -SN
19:20 -0.5 °C -2.4 °C 1012.8 hPa WSW 12.9 km/h 24.1 km/h 87% 0 mm WeatherDisplay:10.37 W/m2 -SN
19:30 -0.6 °C -2.6 °C 1013.1 hPa WSW 16.1 km/h 25.7 km/h 87% 0 mm WeatherDisplay:10.37 W/m2 OVC
19:40 -1.2 °C -2.6 °C 1013.4 hPa WSW 14.5 km/h 32.2 km/h 90% 0 mm WeatherDisplay:10.37 W/m2 OVC
19:50 -1.6 °C -2.8 °C 1013.4 hPa SW 16.1 km/h 27.4 km/h 91% 0 mm WeatherDisplay:10.37 W/m2 OVC
20:00 -1.6 °C -2.7 °C 1013.8 hPa WSW 12.9 km/h 24.1 km/h 92% 0 mm WeatherDisplay:10.37 W/m2 OVC
20:10 -1.5 °C -2.7 °C 1013.8 hPa WSW 9.7 km/h 19.3 km/h 92% 0 mm WeatherDisplay:10.37 W/m2 OVC
20:20 -1.5 °C -2.8 °C 1014.1 hPa WSW 11.3 km/h 24.1 km/h 91% 0 mm WeatherDisplay:10.37 W/m2 OVC
20:30 -1.7 °C -2.9 °C 1014.4 hPa WSW 14.5 km/h 29 km/h 91% 0 mm WeatherDisplay:10.37 W/m2 OVC
20:40 -1.8 °C -3.1 °C 1014.8 hPa WSW 9.7 km/h 24.1 km/h 91% 0 mm WeatherDisplay:10.37 W/m2 OVC
20:50 -2.1 °C -3.2 °C 1014.8 hPa WSW 11.3 km/h 27.4 km/h 92% 0 mm WeatherDisplay:10.37 W/m2 -SN
21:00 -1.9 °C -3.5 °C 1015.1 hPa WSW 16.1 km/h 24.1 km/h 89% 0 mm WeatherDisplay:10.37 W/m2 -SN
21:10 -2.1 °C -3.8 °C 1015.5 hPa WSW 9.7 km/h 22.5 km/h 88% 0 mm WeatherDisplay:10.37 W/m2 BKN
21:20 -2.1 °C -4.2 °C 1015.5 hPa West 12.9 km/h 25.7 km/h 85% 0 mm WeatherDisplay:10.37 W/m2 BKN
21:30 -1.9 °C -4.7 °C 1015.8 hPa WSW 11.3 km/h 25.7 km/h 81% 0 mm WeatherDisplay:10.37 W/m2 OVC
21:40 -1.8 °C -4.9 °C 1015.8 hPa WSW 9.7 km/h 19.3 km/h 79% 0 mm WeatherDisplay:10.37 W/m2 OVC
21:50 -1.7 °C -5 °C 1015.8 hPa WSW 14.5 km/h 19.3 km/h 78% 0 mm WeatherDisplay:10.37 W/m2 OVC
22:00 -1.7 °C -5 °C 1015.8 hPa WSW 11.3 km/h 24.1 km/h 78% 0 mm WeatherDisplay:10.37 W/m2 OVC
22:10 -1.6 °C -4.8 °C 1015.8 hPa WSW 9.7 km/h 19.3 km/h 79% 0 mm WeatherDisplay:10.37 W/m2 OVC
22:20 -1.8 °C -4.9 °C 1015.8 hPa WSW 9.7 km/h 24.1 km/h 79% 0 mm WeatherDisplay:10.37 W/m2 OVC
22:30 -1.9 °C -4.8 °C 1015.8 hPa WSW 9.7 km/h 20.9 km/h 81% 0 mm WeatherDisplay:10.37 W/m2 OVC
22:40 -2.1 °C -4.7 °C 1016.1 hPa WSW 8 km/h 20.9 km/h 82% 0 mm WeatherDisplay:10.37 W/m2 OVC
22:50 -2.1 °C -4.7 °C 1016.5 hPa WSW 12.9 km/h 22.5 km/h 82% 0 mm WeatherDisplay:10.37 W/m2 OVC
23:00 -2 °C -4.5 °C 1016.5 hPa WSW 9.7 km/h 24.1 km/h 83% 0 mm WeatherDisplay:10.37 W/m2 OVC
23:10 -2.1 °C -4.4 °C 1016.5 hPa WSW 12.9 km/h 22.5 km/h 84% 0 mm WeatherDisplay:10.37 W/m2 OVC
23:20 -2.1 °C -4.4 °C 1016.5 hPa WSW 12.9 km/h 24.1 km/h 84% 0 mm WeatherDisplay:10.37 W/m2 OVC
23:30 -2.1 °C -4.4 °C 1016.5 hPa WSW 12.9 km/h 29 km/h 84% 0 mm WeatherDisplay:10.37 W/m2 -SN
23:40 -2 °C -4.7 °C 1016.5 hPa WSW 11.3 km/h 24.1 km/h 82% 0 mm WeatherDisplay:10.37 W/m2 -SN
23:50 -2 °C -4.5 °C 1016.5 hPa WSW 8 km/h 24.1 km/h 83% 0 mm WeatherDisplay:10.37 W/m2 -SN
Smyth Weather
Compliments of Weather Underground - 1.5 mb